Terminal Aerodrome Forecast
Issued by NWS Charleston, WV

Home | Current Version | Previous Version | Text Only | Print | Product List | Glossary On
Versions: 1 2 3 4 5 6 7 8 9 10 11 12 13 14 15 16 17 18 19 20 21 22 23 24 25 26 27 28 29
000
FTUS41 KRLX 220500
TAFPKB
TAF
KPKB 220536Z 2206/2306 19004KT 4SM SHRA BR BKN020 OVC080
      TEMPO 2206/2208 34015G30KT 3/4SM +TSRA BR SCT001 BKN010CB
     FM220900 VRB03KT 3SM BR SCT001 BKN015
      TEMPO 2209/2212 1SM BR BKN001
     FM221200 VRB03KT 2SM BR BKN025 BKN080
     FM221300 VRB03KT 4SM SHRA BR VCTS SCT030CB BKN080
     FM221800 23005KT 4SM SHRA BR VCTS BKN025CB
     FM222300 VRB03KT 6SM BR BKN025
     FM230300 VRB03KT 4SM BR BKN025=

USA.gov is the U.S. government's official web portal to all federal, state and local government web resources and services.